createdAt,value
2024-05-09T00:00:40.759Z,91378.19
2024-05-09T00:03:09.935Z,91366.19
2024-05-09T00:05:38.182Z,91372.94
2024-05-09T00:08:06.560Z,91367.69
2024-05-09T00:10:37.231Z,91369.56
2024-05-09T00:13:07.882Z,91362.81
2024-05-09T00:15:35.824Z,91371.84
2024-05-09T00:18:04.540Z,91376.34
2024-05-09T00:20:38.204Z,91366.16
2024-05-09T00:23:09.175Z,91364.91
2024-05-09T00:25:37.002Z,91370.00
2024-05-09T00:28:04.005Z,91368.91
2024-05-09T00:30:34.700Z,91373.78
2024-05-09T00:33:05.342Z,91365.56
2024-05-09T00:35:33.359Z,91367.84
2024-05-09T00:38:00.460Z,91360.75
2024-05-09T00:40:37.659Z,91357.75
2024-05-09T00:43:07.541Z,91353.97
2024-05-09T00:45:35.894Z,91349.50
2024-05-09T00:48:08.837Z,91349.88
2024-05-09T00:50:41.201Z,91351.41
2024-05-09T00:53:11.779Z,91351.03
2024-05-09T00:55:40.238Z,91346.16
2024-05-09T00:58:09.260Z,91347.91
2024-05-09T01:00:39.808Z,91348.66
2024-05-09T01:03:10.035Z,91347.50
2024-05-09T01:05:39.763Z,91346.47
2024-05-09T01:08:07.900Z,91340.41
2024-05-09T01:10:36.276Z,91342.31
2024-05-09T01:13:07.182Z,91338.94
2024-05-09T01:15:35.343Z,91343.41
2024-05-09T01:18:09.845Z,91344.56
2024-05-09T01:20:42.006Z,91339.25
2024-05-09T01:23:17.515Z,91335.81
2024-05-09T01:25:45.146Z,91336.25
2024-05-09T01:28:12.497Z,91329.47
2024-05-09T01:30:43.758Z,91329.53
2024-05-09T01:33:12.113Z,91331.03
2024-05-09T01:35:42.000Z,91322.06
2024-05-09T01:38:12.235Z,91326.50
2024-05-09T01:40:40.337Z,91317.53
2024-05-09T01:43:11.365Z,91330.28
2024-05-09T01:45:42.176Z,91324.28
2024-05-09T01:48:10.765Z,91324.28
2024-05-09T01:50:41.576Z,91316.38
2024-05-09T01:53:11.226Z,91315.59
2024-05-09T01:55:38.552Z,91287.31
2024-05-09T01:58:05.760Z,91312.13
2024-05-09T02:00:39.285Z,91312.50
2024-05-09T02:03:11.768Z,91311.81
2024-05-09T02:05:41.768Z,91302.34
2024-05-09T02:08:14.845Z,91304.75
2024-05-09T02:10:51.830Z,91308.44
2024-05-09T02:13:18.820Z,91311.50
2024-05-09T02:15:45.917Z,91302.75
2024-05-09T02:18:13.287Z,91304.22
2024-05-09T02:20:42.194Z,91300.13
2024-05-09T02:23:10.282Z,91296.69
2024-05-09T02:25:37.324Z,91294.50
2024-05-09T02:28:04.367Z,91294.13
2024-05-09T02:30:39.368Z,91291.91
2024-05-09T02:33:13.549Z,91296.44
2024-05-09T02:35:41.933Z,91295.72
2024-05-09T02:38:09.553Z,91287.53
2024-05-09T02:40:38.772Z,91293.50
2024-05-09T02:43:08.534Z,91281.88
2024-05-09T02:45:36.632Z,91280.03
2024-05-09T02:48:03.905Z,91281.13
2024-05-09T02:50:37.795Z,91291.19
2024-05-09T02:53:14.020Z,91277.75
2024-05-09T02:55:42.441Z,91291.22
2024-05-09T02:58:10.479Z,91298.97
2024-05-09T03:00:40.778Z,91293.44
2024-05-09T03:03:12.202Z,91310.34
2024-05-09T03:05:41.488Z,91302.16
2024-05-09T03:08:08.685Z,91305.16
2024-05-09T03:10:37.988Z,91305.94
2024-05-09T03:13:11.727Z,91305.56
2024-05-09T03:15:38.919Z,91301.81
2024-05-09T03:18:06.739Z,91304.78
2024-05-09T03:20:35.842Z,91309.34
2024-05-09T03:23:05.356Z,91304.47
2024-05-09T03:25:32.687Z,91305.19
2024-05-09T03:27:59.780Z,91310.03
2024-05-09T03:30:38.722Z,91315.97
2024-05-09T03:33:13.878Z,91311.38
2024-05-09T03:35:41.972Z,91323.41
2024-05-09T03:38:09.294Z,91327.84
2024-05-09T03:40:36.323Z,91334.91
2024-05-09T03:43:03.659Z,91323.38
2024-05-09T03:45:30.493Z,91336.91
2024-05-09T03:47:57.604Z,91323.41
2024-05-09T03:50:30.208Z,91330.94
2024-05-09T03:53:02.078Z,91330.56
2024-05-09T03:55:29.966Z,91333.97
2024-05-09T03:57:57.215Z,91333.97
2024-05-09T04:00:31.316Z,91335.56
2024-05-09T04:03:06.389Z,91332.59
2024-05-09T04:05:35.228Z,91334.88
2024-05-09T04:08:02.409Z,91343.13
2024-05-09T04:10:33.593Z,91339.44
2024-05-09T04:13:02.303Z,91343.22
2024-05-09T04:15:29.345Z,91349.13
2024-05-09T04:17:56.485Z,91342.44
2024-05-09T04:20:35.564Z,91341.75
2024-05-09T04:23:14.564Z,91351.50
2024-05-09T04:25:44.068Z,91355.28
2024-05-09T04:28:11.304Z,91353.41
2024-05-09T04:30:40.793Z,91348.19
2024-05-09T04:33:12.166Z,91356.81
2024-05-09T04:35:44.364Z,91356.09
2024-05-09T04:38:15.606Z,91356.44
2024-05-09T04:40:43.024Z,91354.16
2024-05-09T04:43:19.103Z,91349.63
2024-05-09T04:45:46.253Z,91343.97
2024-05-09T04:48:13.581Z,91349.25
2024-05-09T04:50:40.598Z,91341.69
2024-05-09T04:53:10.107Z,91346.16
2024-05-09T04:55:38.343Z,91342.47
2024-05-09T04:58:08.638Z,91342.50
2024-05-09T05:00:37.907Z,91345.53
2024-05-09T05:03:12.908Z,91348.47
2024-05-09T05:05:42.296Z,91352.97
2024-05-09T05:08:17.423Z,91348.47
2024-05-09T05:10:46.578Z,91348.84
2024-05-09T05:13:22.372Z,91355.22
2024-05-09T05:15:52.162Z,91352.16
2024-05-09T05:18:19.552Z,91357.06
2024-05-09T05:20:46.978Z,91348.00
2024-05-09T05:23:16.440Z,91341.28
2024-05-09T05:25:44.009Z,91344.44
2024-05-09T05:28:11.402Z,91342.78
2024-05-09T05:30:38.969Z,91345.69
2024-05-09T05:33:07.014Z,91350.88
2024-05-09T05:35:34.848Z,91334.50
2024-05-09T05:38:02.869Z,91354.06
2024-05-09T05:40:36.431Z,91351.72
2024-05-09T05:43:05.943Z,91356.91
2024-05-09T05:45:32.752Z,91364.44
2024-05-09T05:48:00.281Z,91349.84
2024-05-09T05:50:34.078Z,91350.84
2024-05-09T05:53:03.753Z,91358.09
2024-05-09T05:55:30.585Z,91357.88
2024-05-09T05:57:57.432Z,91357.69
2024-05-09T06:02:54.065Z,91357.44
2024-05-09T06:05:21.131Z,91350.81
2024-05-09T06:07:48.072Z,91350.84
2024-05-09T06:10:21.314Z,91343.75
2024-05-09T06:12:52.482Z,91348.47
2024-05-09T06:15:19.268Z,91358.41
2024-05-09T06:17:46.738Z,91360.41
2024-05-09T06:20:20.536Z,91363.22
2024-05-09T06:22:54.525Z,91372.19
2024-05-09T06:25:21.332Z,91365.13
2024-05-09T06:27:48.168Z,91367.91
2024-05-09T06:30:25.617Z,91364.03
2024-05-09T06:32:57.739Z,91361.25
2024-05-09T06:35:25.105Z,91366.84
2024-05-09T06:37:51.994Z,91370.72
2024-05-09T06:40:25.469Z,91364.28
2024-05-09T06:42:57.762Z,91352.81
2024-05-09T06:45:24.571Z,91352.16
2024-05-09T06:47:51.534Z,91353.09
2024-05-09T06:50:23.909Z,91357.03
2024-05-09T06:52:55.054Z,91342.34
2024-05-09T06:55:22.350Z,91347.91
2024-05-09T06:57:49.346Z,91347.47
2024-05-09T07:00:23.037Z,91343.44
2024-05-09T07:02:59.065Z,91345.34
2024-05-09T07:05:27.100Z,91348.44
2024-05-09T07:07:53.971Z,91341.09
2024-05-09T07:10:28.648Z,91344.97
2024-05-09T07:12:59.973Z,91343.94
2024-05-09T07:15:26.845Z,91347.47
2024-05-09T07:17:53.879Z,91339.97
2024-05-09T07:20:31.692Z,91340.03
2024-05-09T07:23:03.052Z,91332.16
2024-05-09T07:25:30.319Z,91336.47
2024-05-09T07:27:57.316Z,91330.50
2024-05-09T07:30:32.602Z,91335.91
2024-05-09T07:33:02.318Z,91322.44
2024-05-09T07:35:30.012Z,91327.81
2024-05-09T07:37:57.249Z,91329.28
2024-05-09T07:40:36.123Z,91329.56
2024-05-09T07:43:05.051Z,91330.28
2024-05-09T07:45:48.214Z,91327.97
2024-05-09T07:52:38.322Z,91320.06
2024-05-09T07:53:48.362Z,91323.66
2024-05-09T07:56:20.370Z,91321.38
2024-05-09T07:58:51.019Z,91313.88
2024-05-09T08:01:18.234Z,91314.09
2024-05-09T08:03:45.429Z,91308.78
2024-05-09T08:06:12.396Z,91308.81
2024-05-09T08:08:39.292Z,91312.97
2024-05-09T08:11:06.768Z,91313.13
2024-05-09T08:13:33.687Z,91314.78
2024-05-09T08:16:00.751Z,91309.25
2024-05-09T08:18:28.999Z,91317.38
2024-05-09T08:20:56.080Z,91313.22
2024-05-09T08:23:24.497Z,91318.16
2024-05-09T08:25:55.420Z,91308.19
2024-05-09T08:28:22.320Z,91304.94
2024-05-09T08:30:49.916Z,91306.81
2024-05-09T08:33:16.977Z,91307.00
2024-05-09T08:35:43.916Z,91301.59
2024-05-09T08:38:10.893Z,91302.69
2024-05-09T08:40:38.417Z,91297.16
2024-05-09T08:43:11.398Z,91287.34
2024-05-09T08:45:43.891Z,91283.22
2024-05-09T08:48:15.210Z,91298.56
2024-05-09T08:50:44.918Z,91295.72
2024-05-09T08:53:13.084Z,91295.00
2024-05-09T08:55:43.236Z,91298.16
2024-05-09T08:58:16.189Z,91290.22
2024-05-09T09:00:45.644Z,91289.41
2024-05-09T09:03:16.109Z,91299.38
2024-05-09T09:05:56.352Z,91300.19
2024-05-09T09:08:23.357Z,91305.69
2024-05-09T09:10:54.202Z,91288.91
2024-05-09T09:13:21.163Z,91298.22
2024-05-09T09:15:49.135Z,91291.69
2024-05-09T09:18:17.472Z,91297.63
2024-05-09T09:20:44.798Z,91292.06
2024-05-09T09:23:11.757Z,91293.28
2024-05-09T09:25:42.264Z,91290.22
2024-05-09T09:28:09.747Z,91290.06
2024-05-09T09:30:40.940Z,91292.88
2024-05-09T09:33:10.151Z,91297.41
2024-05-09T09:35:40.114Z,91291.94
2024-05-09T09:38:08.002Z,91282.66
2024-05-09T09:40:40.737Z,91290.09
2024-05-09T09:43:15.477Z,91298.56
2024-05-09T09:45:44.316Z,91292.00
2024-05-09T09:48:14.712Z,91296.09
2024-05-09T09:50:42.382Z,91295.22
2024-05-09T09:53:10.480Z,91283.53
2024-05-09T09:55:39.829Z,91286.91
2024-05-09T09:58:09.676Z,91295.88
2024-05-09T10:00:39.144Z,91288.84
2024-05-09T10:03:06.925Z,91295.44
2024-05-09T10:05:34.530Z,91303.66
2024-05-09T10:08:10.656Z,91296.19
2024-05-09T10:10:47.141Z,91290.66
2024-05-09T10:13:14.455Z,91302.25
2024-05-09T10:15:51.975Z,91289.22
2024-05-09T10:18:27.109Z,91294.22
2024-05-09T10:20:56.333Z,91305.31
2024-05-09T10:23:27.022Z,91298.84
2024-05-09T10:26:03.811Z,91297.03
2024-05-09T10:28:32.602Z,91310.97
2024-05-09T10:31:13.387Z,91307.31
2024-05-09T10:33:46.936Z,91306.72
2024-05-09T10:36:22.158Z,91315.38
2024-05-09T10:38:50.069Z,91295.91
2024-05-09T10:41:17.716Z,91305.03
2024-05-09T10:43:44.804Z,91311.88
2024-05-09T10:46:12.381Z,91313.41
2024-05-09T10:48:41.708Z,91311.88
2024-05-09T10:51:09.211Z,91314.75
2024-05-09T10:53:46.074Z,91311.66
2024-05-09T10:56:17.142Z,91322.19
2024-05-09T10:58:44.608Z,91316.00
2024-05-09T11:01:13.460Z,91324.56
2024-05-09T11:03:41.000Z,91318.22
2024-05-09T11:06:09.929Z,91326.75
2024-05-09T11:08:37.905Z,91322.50
2024-05-09T11:11:08.097Z,91317.47
2024-05-09T11:13:39.738Z,91324.22
2024-05-09T11:16:19.394Z,91330.31
2024-05-09T11:18:57.302Z,91331.38
2024-05-09T11:21:25.268Z,91327.53
2024-05-09T11:23:52.403Z,91331.00
2024-05-09T11:26:21.699Z,91329.63
2024-05-09T11:28:50.558Z,91320.97
2024-05-09T11:31:18.035Z,91343.41
2024-05-09T11:33:47.031Z,91321.47
2024-05-09T11:36:14.594Z,91328.09
2024-05-09T11:38:41.622Z,91326.59
2024-05-09T11:41:08.716Z,91332.56
2024-05-09T11:43:35.631Z,91339.78
2024-05-09T11:46:03.846Z,91351.06
2024-05-09T11:48:31.709Z,91359.88
2024-05-09T11:50:58.909Z,91355.97
2024-05-09T11:53:25.732Z,91347.84
2024-05-09T11:55:52.684Z,91346.50
2024-05-09T11:58:21.603Z,91340.13
2024-05-09T12:00:48.606Z,91345.84
2024-05-09T12:03:15.558Z,91350.31
2024-05-09T12:05:42.676Z,91351.81
2024-05-09T12:08:09.792Z,91344.75
2024-05-09T12:10:37.190Z,91343.31
2024-05-09T12:13:06.544Z,91342.81
2024-05-09T12:15:37.563Z,91345.84
2024-05-09T12:18:06.175Z,91345.53
2024-05-09T12:20:37.635Z,91331.16
2024-05-09T12:23:07.392Z,91325.94
2024-05-09T12:25:34.973Z,91336.13
2024-05-09T12:28:02.003Z,91326.69
2024-05-09T12:30:36.325Z,91328.16
2024-05-09T12:33:08.303Z,91316.81
2024-05-09T12:35:35.498Z,91313.09
2024-05-09T12:38:02.713Z,91298.47
2024-05-09T12:40:36.396Z,91299.59
2024-05-09T12:43:06.991Z,91305.59
2024-05-09T12:45:34.309Z,91304.13
2024-05-09T12:48:01.377Z,91297.38
2024-05-09T12:50:32.727Z,91307.56
2024-05-09T12:53:02.182Z,91312.81
2024-05-09T12:55:33.976Z,91311.28
2024-05-09T12:58:07.963Z,91301.41
2024-05-09T13:00:35.108Z,91306.16
2024-05-09T13:03:02.217Z,91300.69
2024-05-09T13:05:29.699Z,91302.41
2024-05-09T13:07:57.282Z,91295.97
2024-05-09T13:10:31.262Z,91305.50
2024-05-09T13:13:00.921Z,91290.25
2024-05-09T13:15:28.640Z,91293.31
2024-05-09T13:17:58.439Z,91295.13
2024-05-09T13:20:32.801Z,91288.00
2024-05-09T13:23:03.068Z,91293.59
2024-05-09T13:25:30.004Z,91283.78
2024-05-09T13:27:57.392Z,91280.91
2024-05-09T13:32:54.839Z,91280.59
2024-05-09T13:35:21.811Z,91300.16
2024-05-09T13:37:48.653Z,91298.63
2024-05-09T13:40:23.226Z,91294.28
2024-05-09T13:42:54.180Z,91301.63
2024-05-09T13:45:21.004Z,91282.22
2024-05-09T13:47:48.047Z,91297.28
2024-05-09T13:50:27.548Z,91286.66
2024-05-09T13:53:00.128Z,91286.25
2024-05-09T13:55:26.936Z,91286.25
2024-05-09T13:57:54.075Z,91280.41
2024-05-09T14:02:50.650Z,91277.72
2024-05-09T14:05:17.666Z,91284.13
2024-05-09T14:07:44.639Z,91283.81
2024-05-09T14:10:16.065Z,91286.34
2024-05-09T14:12:49.829Z,91270.34
2024-05-09T14:15:16.638Z,91260.59
2024-05-09T14:17:43.559Z,91276.22
2024-05-09T14:20:14.085Z,91265.59
2024-05-09T14:22:47.179Z,91272.00
2024-05-09T14:25:14.635Z,91269.41
2024-05-09T14:27:41.476Z,91272.50
2024-05-09T14:30:18.075Z,91272.28
2024-05-09T14:32:52.520Z,91272.69
2024-05-09T14:35:19.417Z,91267.50
2024-05-09T14:37:46.305Z,91265.38
2024-05-09T14:40:30.404Z,91270.78
2024-05-09T14:43:03.248Z,91267.50
2024-05-09T14:45:30.352Z,91263.19
2024-05-09T14:47:57.524Z,91265.41
2024-05-09T14:50:34.429Z,91265.25
2024-05-09T14:53:04.545Z,91265.97
2024-05-09T14:55:31.425Z,91263.94
2024-05-09T14:57:58.344Z,91256.88
2024-05-09T15:00:29.183Z,91267.25
2024-05-09T15:03:00.721Z,91252.41
2024-05-09T15:05:27.736Z,91258.66
2024-05-09T15:07:57.619Z,91255.06
2024-05-09T15:10:33.388Z,91257.72
2024-05-09T15:13:02.742Z,91250.63
2024-05-09T15:15:29.786Z,91246.66
2024-05-09T15:17:56.991Z,91252.03
2024-05-09T15:20:32.951Z,91256.25
2024-05-09T15:23:02.911Z,91252.81
2024-05-09T15:25:29.933Z,91252.47
2024-05-09T15:27:57.223Z,91257.75
2024-05-09T15:30:30.323Z,91258.69
2024-05-09T15:33:00.688Z,91258.63
2024-05-09T15:35:27.890Z,91257.31
2024-05-09T15:37:55.142Z,91266.69
2024-05-09T15:40:31.174Z,91271.34
2024-05-09T15:43:05.823Z,91257.28
2024-05-09T15:45:33.182Z,91267.16
2024-05-09T15:48:00.792Z,91266.44
2024-05-09T15:50:36.512Z,91271.16
2024-05-09T15:53:08.002Z,91266.69
2024-05-09T15:55:35.863Z,91263.72
2024-05-09T15:58:04.333Z,91266.41
2024-05-09T16:03:01.622Z,91277.50
2024-05-09T16:05:28.644Z,91275.97
2024-05-09T16:07:55.588Z,91274.44
2024-05-09T16:10:26.055Z,91273.03
2024-05-09T16:12:59.202Z,91266.28
2024-05-09T16:15:26.162Z,91282.47
2024-05-09T16:17:53.215Z,91273.09
2024-05-09T16:20:33.215Z,91278.03
2024-05-09T16:23:05.399Z,91265.66
2024-05-09T16:25:32.276Z,91276.56
2024-05-09T16:27:59.191Z,91277.69
2024-05-09T16:30:32.167Z,91284.09
2024-05-09T16:33:02.924Z,91273.19
2024-05-09T16:35:30.190Z,91282.97
2024-05-09T16:37:57.385Z,91278.06
2024-05-09T16:40:34.291Z,91286.78
2024-05-09T16:43:06.353Z,91278.84
2024-05-09T16:45:33.630Z,91283.00
2024-05-09T16:48:01.975Z,91296.56
2024-05-09T16:50:33.731Z,91292.44
2024-05-09T16:53:03.249Z,91295.09
2024-05-09T16:55:30.407Z,91279.72
2024-05-09T16:57:58.126Z,91298.88
2024-05-09T17:00:36.063Z,91296.63
2024-05-09T17:03:15.729Z,91307.91
2024-05-09T17:05:46.441Z,91307.16
2024-05-09T17:08:15.626Z,91305.66
2024-05-09T17:10:42.747Z,91306.75
2024-05-09T17:13:10.211Z,91310.50
2024-05-09T17:15:37.720Z,91315.81
2024-05-09T17:18:06.590Z,91312.41
2024-05-09T17:20:36.360Z,91313.94
2024-05-09T17:23:05.947Z,91316.94
2024-05-09T17:25:33.743Z,91315.06
2024-05-09T17:28:06.912Z,91313.94
2024-05-09T17:30:37.354Z,91318.06
2024-05-09T17:33:07.468Z,91320.31
2024-05-09T17:35:36.099Z,91310.19
2024-05-09T17:38:03.320Z,91324.88
2024-05-09T17:40:33.930Z,91315.47
2024-05-09T17:43:04.429Z,91320.34
2024-05-09T17:45:32.313Z,91316.59
2024-05-09T17:47:59.840Z,91323.75
2024-05-09T17:50:34.941Z,91319.22
2024-05-09T17:53:04.357Z,91329.00
2024-05-09T17:55:31.343Z,91326.75
2024-05-09T17:57:58.401Z,91327.88
2024-05-09T18:00:36.395Z,91328.25
2024-05-09T18:03:07.274Z,91327.84
2024-05-09T18:05:36.713Z,91330.88
2024-05-09T18:08:04.547Z,91329.78
2024-05-09T18:10:36.704Z,91329.75
2024-05-09T18:13:07.007Z,91330.50
2024-05-09T18:15:34.524Z,91332.00
2024-05-09T18:18:02.478Z,91329.38
2024-05-09T18:20:38.135Z,91335.78
2024-05-09T18:23:11.044Z,91332.41
2024-05-09T18:25:37.959Z,91335.03
2024-05-09T18:28:05.835Z,91346.28
2024-05-09T18:30:37.435Z,91344.44
2024-05-09T18:33:09.908Z,91343.31
2024-05-09T18:35:37.150Z,91340.31
2024-05-09T18:38:05.186Z,91344.81
2024-05-09T18:40:35.903Z,91344.03
2024-05-09T18:43:06.873Z,91351.56
2024-05-09T18:45:36.099Z,91329.00
2024-05-09T18:48:05.059Z,91350.44
2024-05-09T18:50:37.081Z,91358.72
2024-05-09T18:53:06.677Z,91355.34
2024-05-09T18:55:33.716Z,91353.47
2024-05-09T18:58:00.993Z,91355.34
2024-05-09T19:00:34.524Z,91365.47
2024-05-09T19:03:09.351Z,91367.38
2024-05-09T19:05:39.046Z,91357.56
2024-05-09T19:08:07.454Z,91362.84
2024-05-09T19:10:35.785Z,91364.38
2024-05-09T19:13:08.274Z,91351.19
2024-05-09T19:15:39.329Z,91359.09
2024-05-09T19:18:07.335Z,91362.09
2024-05-09T19:20:36.145Z,91362.09
2024-05-09T19:23:04.914Z,91371.50
2024-05-09T19:25:33.198Z,91375.63
2024-05-09T19:28:00.767Z,91377.91
2024-05-09T19:30:36.769Z,91378.63
2024-05-09T19:33:08.217Z,91376.75
2024-05-09T19:35:35.288Z,91377.88
2024-05-09T19:38:02.506Z,91383.16
2024-05-09T19:40:32.328Z,91378.63
2024-05-09T19:43:02.584Z,91391.38
2024-05-09T19:45:33.676Z,91378.59
2024-05-09T19:48:01.690Z,91380.84
2024-05-09T19:50:37.211Z,91369.22
2024-05-09T19:53:10.384Z,91380.88
2024-05-09T19:55:37.693Z,91369.97
2024-05-09T19:58:07.170Z,91383.47
2024-05-09T20:00:37.143Z,91383.47
2024-05-09T20:03:06.388Z,91382.38
2024-05-09T20:05:34.105Z,91347.75
2024-05-09T20:08:01.131Z,91375.59
2024-05-09T20:10:32.478Z,91381.59
2024-05-09T20:13:01.702Z,91389.09
2024-05-09T20:15:28.666Z,91383.84
2024-05-09T20:17:57.952Z,91392.13
2024-05-09T20:20:33.627Z,91394.38
2024-05-09T20:23:08.839Z,91389.84
2024-05-09T20:25:38.704Z,91391.34
2024-05-09T20:28:09.047Z,91389.09
2024-05-09T20:30:36.405Z,91384.97
2024-05-09T20:33:05.458Z,91393.97
2024-05-09T20:35:33.936Z,91390.94
2024-05-09T20:38:01.782Z,91387.59
2024-05-09T20:40:33.988Z,91396.97
2024-05-09T20:43:04.789Z,91391.31
2024-05-09T20:45:31.931Z,91393.97
2024-05-09T20:47:58.916Z,91394.69
2024-05-09T20:50:35.953Z,91386.81
2024-05-09T20:53:09.298Z,91393.25
2024-05-09T20:55:36.823Z,91390.56
2024-05-09T20:58:03.825Z,91386.81
2024-05-09T21:00:39.269Z,91395.06
2024-05-09T21:03:09.853Z,91387.59
2024-05-09T21:05:37.075Z,91389.06
2024-05-09T21:08:04.331Z,91395.09
2024-05-09T21:10:40.392Z,91389.41
2024-05-09T21:13:08.010Z,91390.97
2024-05-09T21:15:35.733Z,91394.31
2024-05-09T21:18:03.308Z,91392.38
2024-05-09T21:20:32.958Z,91392.81
2024-05-09T21:23:01.578Z,91386.38
2024-05-09T21:25:29.081Z,91400.69
2024-05-09T21:27:56.777Z,91390.53
2024-05-09T21:30:32.605Z,91403.28
2024-05-09T21:33:12.449Z,91398.06
2024-05-09T21:35:41.694Z,91404.44
2024-05-09T21:38:08.684Z,91402.44
2024-05-09T21:40:36.837Z,91405.44
2024-05-09T21:43:07.720Z,91405.41
2024-05-09T21:45:35.231Z,91396.78
2024-05-09T21:48:06.669Z,91403.84
2024-05-09T21:50:39.799Z,91398.66
2024-05-09T21:53:08.621Z,91392.59
2024-05-09T21:55:35.654Z,91393.00
2024-05-09T21:58:03.325Z,91388.13
2024-05-09T22:00:36.359Z,91390.75
2024-05-09T22:03:10.684Z,91392.59
2024-05-09T22:05:42.069Z,91391.03
2024-05-09T22:08:09.965Z,91382.84
2024-05-09T22:10:37.331Z,91386.84
2024-05-09T22:13:05.804Z,91388.34
2024-05-09T22:15:38.090Z,91383.50
2024-05-09T22:18:08.056Z,91379.03
2024-05-09T22:20:38.479Z,91379.03
2024-05-09T22:23:08.211Z,91379.75
2024-05-09T22:25:36.206Z,91388.38
2024-05-09T22:28:03.626Z,91387.28
2024-05-09T22:30:36.479Z,91376.34
2024-05-09T22:33:11.189Z,91380.53
2024-05-09T22:35:40.063Z,91367.00
2024-05-09T22:38:07.110Z,91379.00
2024-05-09T22:40:43.372Z,91366.16
2024-05-09T22:43:23.449Z,91364.69
2024-05-09T22:45:52.962Z,91350.06
2024-05-09T22:48:20.597Z,91354.94
2024-05-09T22:50:50.262Z,91349.66
2024-05-09T22:53:17.165Z,91349.41
2024-05-09T22:55:44.066Z,91354.28
2024-05-09T22:58:11.125Z,91338.91
2024-05-09T23:00:38.348Z,91344.84
2024-05-09T23:03:05.626Z,91346.81
2024-05-09T23:05:32.996Z,91338.44
2024-05-09T23:08:01.721Z,91329.38
2024-05-09T23:10:35.472Z,91337.63
2024-05-09T23:13:07.703Z,91336.19
2024-05-09T23:15:37.252Z,91335.03
2024-05-09T23:18:04.936Z,91345.53
2024-05-09T23:20:37.520Z,91335.00
2024-05-09T23:23:10.954Z,91333.88
2024-05-09T23:25:39.067Z,91331.53
2024-05-09T23:28:06.335Z,91327.78
2024-05-09T23:30:38.098Z,91335.72
2024-05-09T23:33:11.920Z,91342.78
2024-05-09T23:35:40.852Z,91345.06
2024-05-09T23:38:07.823Z,91339.78
2024-05-09T23:40:39.053Z,91347.28
2024-05-09T23:43:11.966Z,91345.72
2024-05-09T23:45:39.475Z,91344.25
2024-05-09T23:48:07.155Z,91351.00
2024-05-09T23:50:37.562Z,91338.97
2024-05-09T23:53:08.010Z,91352.88
2024-05-09T23:55:38.222Z,91349.09
2024-05-09T23:58:05.803Z,91349.81
